Terminal Aerodrome Forecast
Issued by NWS Charleston, WV

Home | Current Version | Previous Version | Text Only | Print | Product List | Glossary On
Versions: 1 2 3 4 5 6 7 8 9 10 11 12 13 14 15 16 17 18 19 20
657
FTUS41 KRLX 042330
TAFPKB
TAF
KPKB 042330Z 0500/0524 27005KT 5SM SHRA VCTS OVC035CB
     FM050200 29004KT 4SM SHRA OVC025
     FM050600 31004KT P6SM OVC025
     FM050900 VRB03KT 6SM SHRA BR OVC015
     FM051200 30004KT 3SM SHRA BR OVC007
     FM051700 35004KT 3SM SHRA BR OVC012=

USA.gov is the U.S. government's official web portal to all federal, state and local government web resources and services.